createdAt,value
2022-10-04T00:02:03.893Z,81.72
2022-10-04T00:04:43.843Z,81.65
2022-10-04T00:07:13.519Z,81.71
2022-10-04T00:09:57.872Z,82.12
2022-10-04T00:12:37.491Z,81.85
2022-10-04T00:15:18.426Z,81.46
2022-10-04T00:18:12.150Z,81.43
2022-10-04T00:20:50.051Z,81.22
2022-10-04T00:23:22.751Z,81.31
2022-10-04T00:26:00.438Z,82.13
2022-10-04T00:28:41.104Z,82.74
2022-10-04T00:31:24.613Z,81.28
2022-10-04T00:33:51.687Z,80.29
2022-10-04T00:36:24.373Z,80.17
2022-10-04T00:39:06.306Z,80.22
2022-10-04T00:41:48.721Z,79.90
2022-10-04T00:44:49.621Z,80.17
2022-10-04T00:47:34.515Z,80.18
2022-10-04T00:50:10.956Z,80.41
2022-10-04T00:52:44.450Z,80.75
2022-10-04T00:55:21.637Z,80.90
2022-10-04T00:57:50.868Z,80.93
2022-10-04T01:00:19.011Z,81.36
2022-10-04T01:02:58.357Z,80.90
2022-10-04T01:05:32.342Z,80.65
2022-10-04T01:08:07.568Z,80.54
2022-10-04T01:10:42.254Z,80.32
2022-10-04T01:13:12.454Z,80.41
2022-10-04T01:15:45.095Z,80.36
2022-10-04T01:18:14.458Z,80.61
2022-10-04T01:20:50.704Z,80.83
2022-10-04T01:23:51.525Z,81.11
2022-10-04T01:26:31.708Z,81.79
2022-10-04T01:29:04.690Z,83.65
2022-10-04T01:31:35.272Z,84.58
2022-10-04T01:34:04.757Z,85.57
2022-10-04T01:36:32.911Z,84.82
2022-10-04T01:39:00.075Z,84.30
2022-10-04T01:41:52.711Z,84.82
2022-10-04T01:44:45.402Z,83.72
2022-10-04T01:47:24.117Z,83.35
2022-10-04T01:49:54.948Z,82.05
2022-10-04T01:52:28.929Z,81.83
2022-10-04T01:55:08.456Z,82.27
2022-10-04T01:57:40.825Z,82.63
2022-10-04T02:00:11.872Z,82.29
2022-10-04T02:02:50.920Z,82.22
2022-10-04T02:05:26.979Z,82.13
2022-10-04T02:07:55.777Z,82.14
2022-10-04T02:10:25.741Z,82.14
2022-10-04T02:12:54.202Z,82.49
2022-10-04T02:15:26.211Z,81.79
2022-10-04T02:17:55.473Z,81.83
2022-10-04T02:20:26.068Z,82.19
2022-10-04T02:23:02.745Z,82.87
2022-10-04T02:25:30.735Z,82.31
2022-10-04T02:27:58.133Z,82.05
2022-10-04T02:30:25.067Z,82.31
2022-10-04T02:32:57.199Z,82.26
2022-10-04T02:35:26.979Z,81.94
2022-10-04T02:38:07.454Z,81.96
2022-10-04T02:40:41.212Z,82.14
2022-10-04T02:43:20.712Z,82.30
2022-10-04T02:46:09.054Z,82.50
2022-10-04T02:48:55.832Z,82.55
2022-10-04T02:51:30.817Z,82.98
2022-10-04T02:54:19.156Z,84.68
2022-10-04T02:56:52.705Z,83.71
2022-10-04T02:59:20.958Z,83.11
2022-10-04T03:01:59.832Z,83.36
2022-10-04T03:04:39.618Z,83.66
2022-10-04T03:07:08.708Z,83.83
2022-10-04T03:09:37.618Z,83.41
2022-10-04T03:12:05.679Z,85.73
2022-10-04T03:14:33.645Z,84.54
2022-10-04T03:17:03.541Z,84.14
2022-10-04T03:19:31.847Z,84.30
2022-10-04T03:22:07.447Z,83.67
2022-10-04T03:24:42.642Z,84.90
2022-10-04T03:27:16.744Z,84.05
2022-10-04T03:29:43.912Z,82.96
2022-10-04T03:32:15.185Z,82.89
2022-10-04T03:35:05.551Z,83.84
2022-10-04T03:37:37.320Z,84.99
2022-10-04T03:40:09.170Z,84.55
2022-10-04T03:42:38.574Z,84.18
2022-10-04T03:45:15.250Z,83.45
2022-10-04T03:47:48.010Z,83.23
2022-10-04T03:50:20.045Z,84.96
2022-10-04T03:52:54.132Z,84.55
2022-10-04T03:55:25.054Z,85.74
2022-10-04T03:57:52.198Z,85.26
2022-10-04T04:00:19.254Z,84.62
2022-10-04T04:03:04.737Z,85.10
2022-10-04T04:05:35.269Z,85.13
2022-10-04T04:08:26.375Z,84.32
2022-10-04T04:10:58.064Z,84.40
2022-10-04T04:13:48.742Z,84.30
2022-10-04T04:16:15.832Z,83.66
2022-10-04T04:18:45.700Z,82.98
2022-10-04T04:21:18.502Z,82.96
2022-10-04T04:23:50.655Z,82.93
2022-10-04T04:26:17.407Z,83.06
2022-10-04T04:28:48.871Z,83.05
2022-10-04T04:31:26.361Z,83.23
2022-10-04T04:34:02.138Z,83.53
2022-10-04T04:36:42.538Z,84.06
2022-10-04T04:39:32.675Z,84.44
2022-10-04T04:42:10.669Z,84.43
2022-10-04T04:44:46.915Z,85.74
2022-10-04T04:47:44.205Z,85.94
2022-10-04T04:50:15.463Z,85.26
2022-10-04T04:53:08.392Z,86.22
2022-10-04T04:56:02.268Z,86.64
2022-10-04T04:58:38.356Z,86.64
2022-10-04T05:01:08.613Z,85.16
2022-10-04T05:03:35.706Z,82.72
2022-10-04T05:06:04.277Z,82.96
2022-10-04T05:08:40.170Z,83.42
2022-10-04T05:11:08.220Z,83.49
2022-10-04T05:13:47.859Z,83.67
2022-10-04T05:16:20.557Z,83.42
2022-10-04T05:18:50.873Z,83.36
2022-10-04T05:21:29.607Z,84.86
2022-10-04T05:23:58.686Z,83.30
2022-10-04T05:26:30.312Z,83.31
2022-10-04T05:29:06.106Z,81.94
2022-10-04T05:31:44.010Z,81.86
2022-10-04T05:34:39.620Z,81.69
2022-10-04T05:37:25.412Z,81.13
2022-10-04T05:39:54.923Z,80.95
2022-10-04T05:42:29.755Z,80.62
2022-10-04T05:44:57.954Z,81.11
2022-10-04T05:47:30.686Z,81.27
2022-10-04T05:50:00.617Z,81.52
2022-10-04T05:52:32.629Z,81.43
2022-10-04T05:55:23.610Z,80.97
2022-10-04T05:57:50.213Z,81.08
2022-10-04T06:00:23.129Z,81.21
2022-10-04T06:02:52.528Z,81.00
2022-10-04T06:05:38.636Z,81.89
2022-10-04T06:08:16.497Z,80.86
2022-10-04T06:11:03.342Z,80.18
2022-10-04T06:14:04.232Z,79.58
2022-10-04T06:16:43.738Z,80.39
2022-10-04T06:19:32.697Z,80.20
2022-10-04T06:22:15.202Z,80.20
2022-10-04T06:24:46.425Z,79.81
2022-10-04T06:27:28.655Z,80.02
2022-10-04T06:30:12.044Z,79.94
2022-10-04T06:32:57.474Z,79.48
2022-10-04T06:35:42.662Z,79.84
2022-10-04T06:38:11.944Z,81.11
2022-10-04T06:40:47.499Z,82.58
2022-10-04T06:43:53.312Z,81.64
2022-10-04T06:46:37.821Z,80.99
2022-10-04T06:49:23.748Z,80.30
2022-10-04T06:51:56.595Z,79.69
2022-10-04T06:54:38.977Z,80.01
2022-10-04T06:57:35.853Z,80.06
2022-10-04T07:00:08.874Z,80.96
2022-10-04T07:02:40.119Z,80.76
2022-10-04T07:05:29.969Z,82.17
2022-10-04T07:08:41.253Z,82.89
2022-10-04T07:11:14.155Z,81.36
2022-10-04T07:13:53.172Z,80.63
2022-10-04T07:16:31.698Z,79.91
2022-10-04T07:19:19.865Z,79.24
2022-10-04T07:22:11.867Z,79.06
2022-10-04T07:24:50.694Z,77.69
2022-10-04T07:27:27.989Z,78.45
2022-10-04T07:29:57.758Z,78.95
2022-10-04T07:32:42.774Z,79.08
2022-10-04T07:35:09.519Z,78.04
2022-10-04T07:38:03.190Z,77.58
2022-10-04T07:40:36.217Z,77.16
2022-10-04T07:43:12.948Z,76.92
2022-10-04T07:45:41.669Z,76.29
2022-10-04T07:48:09.205Z,75.86
2022-10-04T07:50:45.479Z,75.92
2022-10-04T07:53:18.663Z,75.30
2022-10-04T07:56:04.331Z,75.54
2022-10-04T07:58:56.079Z,76.49
2022-10-04T08:01:43.911Z,76.09
2022-10-04T08:04:37.705Z,76.48
2022-10-04T08:07:42.671Z,76.88
2022-10-04T08:10:35.006Z,77.37
2022-10-04T08:13:22.734Z,76.18
2022-10-04T08:15:52.664Z,75.97
2022-10-04T08:19:08.143Z,76.66
2022-10-04T08:21:48.524Z,79.02
2022-10-04T08:24:28.422Z,78.56
2022-10-04T08:27:21.584Z,78.34
2022-10-04T08:30:06.959Z,76.91
2022-10-04T08:33:11.949Z,77.46
2022-10-04T08:35:45.671Z,78.41
2022-10-04T08:38:22.497Z,77.38
2022-10-04T08:41:24.967Z,77.66
2022-10-04T08:44:19.705Z,77.50
2022-10-04T08:46:59.209Z,76.90
2022-10-04T08:49:58.004Z,76.33
2022-10-04T08:52:36.975Z,74.39
2022-10-04T08:55:22.840Z,75.05
2022-10-04T08:58:08.405Z,75.43
2022-10-04T09:00:48.555Z,75.21
2022-10-04T09:03:33.818Z,75.95
2022-10-04T09:06:06.721Z,75.37
2022-10-04T09:09:11.247Z,75.25
2022-10-04T09:11:58.059Z,74.50
2022-10-04T09:14:57.358Z,73.47
2022-10-04T09:17:46.537Z,74.25
2022-10-04T09:20:37.199Z,75.50
2022-10-04T09:23:31.337Z,73.96
2022-10-04T09:26:21.590Z,74.05
2022-10-04T09:29:16.217Z,74.28
2022-10-04T09:31:43.081Z,74.12
2022-10-04T09:34:41.863Z,74.26
2022-10-04T09:37:30.636Z,73.58
2022-10-04T09:40:35.550Z,72.54
2022-10-04T09:43:43.970Z,72.55
2022-10-04T09:46:56.668Z,72.10
2022-10-04T09:49:55.333Z,73.13
2022-10-04T09:52:25.198Z,73.11
2022-10-04T09:55:04.743Z,73.24
2022-10-04T09:57:38.637Z,72.69
2022-10-04T10:00:08.310Z,73.30
2022-10-04T10:02:57.101Z,72.66
2022-10-04T10:06:02.872Z,72.74
2022-10-04T10:09:00.854Z,74.09
2022-10-04T10:12:10.195Z,73.67
2022-10-04T10:15:03.350Z,75.06
2022-10-04T10:17:47.299Z,75.39
2022-10-04T10:20:30.481Z,75.04
2022-10-04T10:23:03.415Z,77.42
2022-10-04T10:25:33.029Z,77.20
2022-10-04T10:28:18.765Z,77.64
2022-10-04T10:31:20.025Z,78.70
2022-10-04T10:34:15.074Z,80.03
2022-10-04T10:36:42.307Z,80.93
2022-10-04T10:39:15.432Z,81.17
2022-10-04T10:42:03.151Z,80.83
2022-10-04T10:44:48.385Z,80.12
2022-10-04T10:47:43.576Z,80.19
2022-10-04T10:50:29.239Z,80.73
2022-10-04T10:53:29.751Z,79.64
2022-10-04T10:56:23.929Z,80.01
2022-10-04T10:59:28.191Z,82.51
2022-10-04T11:02:14.500Z,79.92
2022-10-04T11:05:30.301Z,80.13
2022-10-04T11:08:29.558Z,78.87
2022-10-04T11:11:18.041Z,77.29
2022-10-04T11:14:11.269Z,77.63
2022-10-04T11:16:38.188Z,77.12
2022-10-04T11:19:30.091Z,76.04
2022-10-04T11:22:38.238Z,75.14
2022-10-04T11:25:11.459Z,76.17
2022-10-04T11:27:58.409Z,76.21
2022-10-04T11:30:30.465Z,76.00
2022-10-04T11:33:06.812Z,75.07
2022-10-04T11:36:09.266Z,74.82
2022-10-04T11:39:02.160Z,75.18
2022-10-04T11:41:41.427Z,74.78
2022-10-04T11:44:24.219Z,75.14
2022-10-04T11:46:54.905Z,75.29
2022-10-04T11:49:27.774Z,74.04
2022-10-04T11:52:04.201Z,74.63
2022-10-04T11:54:57.971Z,76.46
2022-10-04T11:57:42.628Z,75.16
2022-10-04T12:00:20.114Z,75.08
2022-10-04T12:02:56.185Z,74.43
2022-10-04T12:05:32.490Z,73.03
2022-10-04T12:08:18.100Z,74.10
2022-10-04T12:11:18.547Z,74.39
2022-10-04T12:14:24.222Z,73.54
2022-10-04T12:17:11.249Z,72.07
2022-10-04T12:20:15.179Z,71.95
2022-10-04T12:23:30.578Z,71.34
2022-10-04T12:26:07.730Z,73.26
2022-10-04T12:28:41.867Z,72.47
2022-10-04T12:31:36.669Z,72.04
2022-10-04T12:34:14.174Z,72.07
2022-10-04T12:36:59.719Z,74.45
2022-10-04T12:40:13.077Z,72.08
2022-10-04T12:43:08.263Z,71.02
2022-10-04T12:45:41.149Z,71.29
2022-10-04T12:48:14.974Z,70.89
2022-10-04T12:51:00.040Z,70.17
2022-10-04T12:53:34.249Z,70.66
2022-10-04T12:56:27.826Z,71.51
2022-10-04T12:59:20.258Z,72.14
2022-10-04T13:01:56.190Z,71.55
2022-10-04T13:04:28.737Z,71.64
2022-10-04T13:07:15.721Z,72.09
2022-10-04T13:10:05.472Z,72.14
2022-10-04T13:13:01.834Z,71.38
2022-10-04T13:18:53.126Z,70.66
2022-10-04T13:21:38.758Z,70.57
2022-10-04T13:24:25.071Z,71.50
2022-10-04T13:27:00.922Z,70.47
2022-10-04T13:29:33.706Z,70.06
2022-10-04T13:32:14.826Z,70.11
2022-10-04T13:35:24.222Z,71.25
2022-10-04T13:38:09.505Z,71.48
2022-10-04T13:40:49.252Z,71.56
2022-10-04T13:43:49.486Z,71.75
2022-10-04T13:46:43.357Z,72.34
2022-10-04T13:49:10.102Z,71.57
2022-10-04T13:52:27.116Z,71.62
2022-10-04T13:55:52.890Z,71.41
2022-10-04T13:58:31.909Z,70.28
2022-10-04T14:01:02.050Z,69.81
2022-10-04T14:03:55.161Z,71.95
2022-10-04T14:06:59.624Z,70.29
2022-10-04T14:09:55.791Z,70.00
2022-10-04T14:12:25.871Z,69.34
2022-10-04T14:15:17.363Z,69.72
2022-10-04T14:18:12.573Z,70.38
2022-10-04T14:21:18.923Z,70.08
2022-10-04T14:24:14.600Z,70.93
2022-10-04T14:27:05.473Z,71.26
2022-10-04T14:30:07.743Z,71.12
2022-10-04T14:32:59.681Z,71.71
2022-10-04T14:35:48.337Z,72.01
2022-10-04T14:38:15.523Z,72.23
2022-10-04T14:41:29.751Z,72.51
2022-10-04T14:44:32.225Z,72.78
2022-10-04T14:47:28.408Z,73.10
2022-10-04T14:50:14.153Z,73.63
2022-10-04T14:52:43.652Z,74.37
2022-10-04T14:55:48.795Z,73.98
2022-10-04T14:58:29.559Z,73.38
2022-10-04T15:01:20.027Z,73.03
2022-10-04T15:03:49.982Z,75.72
2022-10-04T15:06:57.275Z,75.56
2022-10-04T15:09:36.306Z,75.89
2022-10-04T15:12:36.326Z,74.76
2022-10-04T15:15:13.927Z,76.41
2022-10-04T15:17:54.751Z,76.38
2022-10-04T15:20:33.311Z,78.12
2022-10-04T15:23:12.962Z,77.16
2022-10-04T15:26:13.497Z,77.85
2022-10-04T15:28:49.495Z,79.37
2022-10-04T15:31:23.333Z,78.24
2022-10-04T15:33:58.813Z,77.04
2022-10-04T15:36:37.630Z,76.55
2022-10-04T15:39:21.685Z,76.93
2022-10-04T15:41:55.493Z,76.65
2022-10-04T15:44:43.738Z,77.36
2022-10-04T15:47:19.806Z,78.24
2022-10-04T15:50:24.662Z,78.23
2022-10-04T15:53:17.422Z,79.31
2022-10-04T15:56:11.872Z,80.10
2022-10-04T15:58:52.752Z,82.61
2022-10-04T16:01:38.678Z,81.22
2022-10-04T16:04:15.048Z,82.53
2022-10-04T16:06:55.618Z,82.15
2022-10-04T16:09:36.969Z,82.87
2022-10-04T16:12:25.440Z,83.30
2022-10-04T16:14:52.972Z,83.21
2022-10-04T16:17:41.447Z,84.62
2022-10-04T16:20:33.765Z,84.06
2022-10-04T16:23:27.746Z,81.82
2022-10-04T16:26:02.876Z,80.15
2022-10-04T16:28:48.672Z,80.07
2022-10-04T16:31:21.019Z,80.54
2022-10-04T16:34:02.483Z,81.15
2022-10-04T16:36:58.366Z,83.60
2022-10-04T16:40:00.289Z,83.37
2022-10-04T16:42:53.288Z,83.08
2022-10-04T16:45:32.096Z,82.12
2022-10-04T16:48:06.153Z,80.60
2022-10-04T16:51:04.226Z,79.92
2022-10-04T16:53:40.402Z,79.79
2022-10-04T16:56:17.344Z,79.36
2022-10-04T16:59:00.580Z,79.43
2022-10-04T17:01:33.513Z,79.40
2022-10-04T17:04:14.519Z,79.29
2022-10-04T17:06:58.490Z,79.30
2022-10-04T17:09:44.177Z,80.63
2022-10-04T17:12:19.539Z,84.16
2022-10-04T17:14:52.634Z,83.48
2022-10-04T17:17:29.506Z,82.11
2022-10-04T17:20:10.584Z,81.21
2022-10-04T17:23:16.833Z,80.54
2022-10-04T17:25:43.684Z,80.55
2022-10-04T17:28:44.151Z,81.59
2022-10-04T17:31:37.210Z,82.74
2022-10-04T17:34:26.861Z,84.40
2022-10-04T17:37:12.025Z,83.88
2022-10-04T17:40:17.892Z,82.23
2022-10-04T17:43:19.872Z,81.69
2022-10-04T17:46:11.217Z,81.57
2022-10-04T17:49:10.886Z,81.18
2022-10-04T17:52:13.160Z,80.87
2022-10-04T17:55:10.529Z,80.85
2022-10-04T17:57:40.848Z,82.04
2022-10-04T18:00:18.296Z,81.36
2022-10-04T18:02:59.177Z,83.09
2022-10-04T18:05:26.070Z,82.47
2022-10-04T18:08:05.719Z,82.16
2022-10-04T18:10:37.881Z,81.75
2022-10-04T18:13:33.832Z,82.67
2022-10-04T18:16:26.208Z,81.33
2022-10-04T18:18:53.315Z,84.03
2022-10-04T18:21:30.938Z,83.88
2022-10-04T18:24:20.214Z,81.96
2022-10-04T18:27:04.457Z,81.21
2022-10-04T18:30:00.149Z,82.28
2022-10-04T18:32:27.094Z,82.82
2022-10-04T18:35:00.501Z,81.96
2022-10-04T18:37:33.662Z,81.62
2022-10-04T18:40:19.165Z,82.07
2022-10-04T18:42:51.731Z,82.61
2022-10-04T18:45:23.644Z,84.24
2022-10-04T18:47:51.990Z,83.76
2022-10-04T18:50:31.665Z,84.20
2022-10-04T18:53:14.240Z,84.52
2022-10-04T18:56:05.539Z,83.76
2022-10-04T18:59:09.579Z,82.98
2022-10-04T19:02:01.262Z,82.07
2022-10-04T19:04:48.112Z,80.71
2022-10-04T19:07:43.152Z,82.26
2022-10-04T19:10:41.136Z,83.45
2022-10-04T19:13:18.931Z,81.61
2022-10-04T19:16:12.190Z,81.91
2022-10-04T19:19:17.000Z,80.89
2022-10-04T19:21:44.041Z,79.68
2022-10-04T19:24:10.791Z,80.20
2022-10-04T19:26:46.131Z,80.37
2022-10-04T19:29:37.045Z,80.36
2022-10-04T19:32:10.889Z,79.98
2022-10-04T19:35:16.017Z,79.66
2022-10-04T19:37:49.391Z,80.24
2022-10-04T19:40:39.933Z,80.32
2022-10-04T19:43:41.962Z,79.30
2022-10-04T19:46:27.487Z,78.72
2022-10-04T19:48:54.497Z,79.25
2022-10-04T19:51:21.235Z,79.17
2022-10-04T19:53:50.334Z,78.71
2022-10-04T19:56:28.833Z,78.59
2022-10-04T19:59:10.036Z,78.72
2022-10-04T20:01:38.312Z,78.81
2022-10-04T20:04:34.923Z,81.00
2022-10-04T20:07:18.796Z,80.74
2022-10-04T20:10:27.699Z,80.22
2022-10-04T20:13:24.680Z,80.58
2022-10-04T20:15:52.855Z,81.44
2022-10-04T20:18:32.097Z,81.39
2022-10-04T20:20:59.757Z,84.64
2022-10-04T20:23:36.735Z,84.71
2022-10-04T20:26:42.178Z,83.45
2022-10-04T20:29:08.949Z,82.52
2022-10-04T20:31:51.966Z,81.10
2022-10-04T20:34:38.364Z,80.68
2022-10-04T20:37:09.799Z,80.36
2022-10-04T20:39:39.826Z,80.97
2022-10-04T20:42:26.632Z,81.49
2022-10-04T20:45:08.741Z,80.40
2022-10-04T20:47:47.566Z,81.13
2022-10-04T20:50:33.458Z,82.10
2022-10-04T20:53:14.952Z,82.62
2022-10-04T20:55:43.672Z,80.77
2022-10-04T20:58:34.759Z,79.84
2022-10-04T21:01:37.528Z,79.70
2022-10-04T21:04:30.198Z,80.02
2022-10-04T21:07:07.879Z,80.73
2022-10-04T21:09:36.919Z,80.62
2022-10-04T21:12:05.663Z,81.36
2022-10-04T21:14:33.768Z,80.53
2022-10-04T21:17:04.722Z,79.47
2022-10-04T21:19:46.722Z,79.24
2022-10-04T21:22:16.605Z,79.22
2022-10-04T21:24:53.471Z,79.46
2022-10-04T21:27:43.057Z,79.29
2022-10-04T21:30:15.634Z,79.42
2022-10-04T21:32:42.604Z,79.42
2022-10-04T21:35:09.834Z,79.26
2022-10-04T21:37:36.628Z,79.91
2022-10-04T21:40:05.286Z,79.94
2022-10-04T21:42:32.614Z,82.59
2022-10-04T21:44:59.471Z,84.00
2022-10-04T21:47:26.311Z,82.56
2022-10-04T21:49:54.589Z,81.47
2022-10-04T21:52:21.939Z,80.54
2022-10-04T21:54:48.831Z,80.89
2022-10-04T21:57:15.840Z,80.78
2022-10-04T21:59:42.890Z,83.64
2022-10-04T22:02:09.904Z,82.12
2022-10-04T22:04:37.594Z,81.21
2022-10-04T22:07:04.460Z,80.33
2022-10-04T22:09:32.823Z,79.82
2022-10-04T22:11:59.511Z,82.50
2022-10-04T22:14:26.514Z,83.03
2022-10-04T22:16:53.546Z,84.35
2022-10-04T22:19:20.511Z,82.88
2022-10-04T22:21:47.294Z,82.71
2022-10-04T22:24:20.366Z,82.53
2022-10-04T22:26:47.786Z,82.56
2022-10-04T22:29:16.855Z,81.87
2022-10-04T22:31:50.431Z,82.19
2022-10-04T22:34:21.035Z,85.02
2022-10-04T22:36:49.631Z,84.79
2022-10-04T22:39:19.227Z,85.12
2022-10-04T22:41:54.992Z,83.37
2022-10-04T22:44:33.705Z,82.55
2022-10-04T22:47:01.920Z,83.51
2022-10-04T22:49:34.986Z,83.93
2022-10-04T22:52:09.189Z,85.59
2022-10-04T22:54:45.447Z,83.91
2022-10-04T22:57:14.786Z,82.30
2022-10-04T22:59:45.800Z,81.30
2022-10-04T23:02:19.759Z,82.53
2022-10-04T23:04:56.554Z,82.46
2022-10-04T23:07:23.946Z,81.88
2022-10-04T23:09:50.791Z,81.06
2022-10-04T23:12:17.643Z,80.94
2022-10-04T23:14:44.677Z,82.25
2022-10-04T23:17:33.350Z,83.31
2022-10-04T23:20:12.784Z,83.28
2022-10-04T23:22:42.492Z,83.10
2022-10-04T23:25:23.029Z,81.91
2022-10-04T23:27:49.811Z,82.47
2022-10-04T23:30:19.821Z,82.11
2022-10-04T23:32:48.975Z,83.87
2022-10-04T23:35:23.157Z,83.91
2022-10-04T23:37:52.333Z,84.18
2022-10-04T23:40:21.944Z,82.78
2022-10-04T23:42:53.309Z,83.07
2022-10-04T23:45:22.493Z,84.11
2022-10-04T23:47:53.324Z,84.00
2022-10-04T23:50:24.802Z,85.32
2022-10-04T23:52:56.836Z,84.04
2022-10-04T23:55:28.297Z,83.87
2022-10-04T23:57:55.786Z,83.44
